Albany Center, Vermont
Current Conditions -  °F | °C
As of 9:35 PM on Sunday 23 Nov 2014 (Local Time) from KEFK Reporting Station
Overcast Overcast  
Wind Chill: 39°   Ceiling: 6000
Heat Index: 39°   Visibility: 7mi
Dew Point: 37°   Wind: 0mph
Humidity: 95%   Direction: NA
Pressure: 30.03"   Gusts: NA
Location:  44.8143°N, 72.284°W
Report Text: KEFK 240235Z AUTO 00000KT 7SM OVC060 04/03 A3003 RMK AO2 T00370030
Loading
Personal Weather Stations






























Interactive Weather Map New forecast layout! Learn more

10-Day Weather Forecast

Advertisements
Track Severe Weather on mobile